หน้าหลัก
METAR-TAF:

METAR-TAF

ท่าอากาศยาน :

เม็กซิโกซิตี, เม็กซิโก

ละติจูด: 19-26N, ลองจิจูด: 099-06W, ความสูง: 2238 ม.

การสังเกตสภาพอากาศปัจจุบัน

รายงานได้ทำขึ้นเมื่อ 1 ชั่วโมงและ 21 นาทีที่แล้ว ณ เวลา 00:48 UTC
ลม 12 นอตจากใต้
อุณหภูมิ 20°C
ความชื้น 35%
ความกดอากาศ 1024 hPa
ทัศนวิสัย: 16.1 กม.
มีเมฆกระจายเป็นบางส่วนที่ความสูง 2000 ฟุต

METAR: MMMX 210048Z 18012KT 10SM SCT020 20/04 A3024 NOSIG RMK 8/200 HZY DSNT TCU W

เวลา: 20:09 (02:09 UTC)

การพยากรณ์

รายงานได้ทำขึ้นเมื่อ 2 ชั่วโมงและ 50 นาทีที่แล้ว ณ เวลา 23:19 UTC
การพยากรณ์มีผลตั้งแต่วันที่ 21 ณ เวลา 00 UTC จนถึงวันที่ 22 ณ เวลา 00 UTC
ลม 15 นอตจากใต้/ตะวันตกเฉียงใต้
ทัศนวิสัย: 10 กม.
มีเมฆกระจายเป็นบางส่วนที่ความสูง 2000 ฟุต
จาก 21 ณ เวลา 0200 UTC
ลม 5 นอตจากตะวันตกเฉียงใต้
ทัศนวิสัย: 10 กม.
ท้องฟ้าแจ่มใส
จาก 21 ณ เวลา 1200 UTC
ลม 10 นอตจากใต้/ตะวันออกเฉียงใต้
ทัศนวิสัย: 10 กม.
ท้องฟ้าแจ่มใส

TAF: MMMX 202319Z 2100/2200 20015KT P6SM SCT020 TX25/2121Z TN10/2112Z FM210200 23005KT P6SM SKC FM211200 16010KT P6SM SKC

สังเกตการณ์สภาพอากาศและพยากรณ์อากาศของสนามบินมากกว่า 4000 แห่ง (รายงาน METAR และ TAF).

สถานีที่ดูได้จะแสดงไว้ด้วยจุดสีเหลืองและสีแดงบนแผนที่.

เลื่อนเมาส์ไปเหนือจุดเพื่อดูชื่อสถานี.

แล้วคลิกเพื่อดูสังเกตการณ์และการพยากรณ์สภาพอากาศ.

ในการเปลี่ยนแผนที่: คลิกที่ปุ่มสีเขียวที่มีกากบาทสีดำเพื่อซูมเข้า; ที่ปุ่มสีเขียวที่มีขีดเพื่อซูมออก; หรือที่ลูกศรสีเขียวเพื่อไปยังแผนที่ที่อยู่ติดกัน.


METAR-TAF: